Time;durP1;ratioP1;P1;durP2;ratioP2;P2;SDS_P1;SDS_P2;PMS_P1;PMS_P2;Temp;Humidity;BMP_temperature;BMP_pressure;BME280_temperature;BME280_humidity;BME280_pressure;Samples;Min_cycle;Max_cycle;Signal;HPM_P1;HPM_P2
2021/01/24 00:01:34;;;;;;;;;;;;;;;16.09;39.25;97390.56;4384502;32;19974;-45
2021/01/24 00:04:00;;;;;;;;;;;;;;;16.21;38.92;97384.19;4385413;32;19969;-48
2021/01/24 00:06:26;;;;;;;;;;;;;;;16.23;38.98;97390.28;4381621;32;20326;-51
2021/01/24 00:08:51;;;;;;;;;;;;;;;16.21;38.96;97392.06;4383470;32;19965;-52
2021/01/24 00:11:17;;;;;;;;;;;;;;;16.22;38.89;97388.56;4379526;32;19965;-49
2021/01/24 00:13:43;;;;;;;;;;;;;;;16.17;39.06;97379.91;4384037;32;19969;-52
2021/01/24 00:16:09;;;;;;;;;;;;;;;16.14;39.07;97391.31;4383812;32;19988;-50
2021/01/24 00:18:35;;;;;;;;;;;;;;;16.15;39.08;97392.19;4381705;32;19975;-52
2021/01/24 00:21:01;;;;;;;;;;;;;;;16.02;39.32;97389.78;4383852;32;19966;-51
2021/01/24 00:23:27;;;;;;;;;;;;;;;16.09;39.19;97387.94;4385307;32;19978;-45
2021/01/24 00:25:53;;;;;;;;;;;;;;;16.15;39.09;97381.69;4386149;32;20006;-50
2021/01/24 00:28:21;;;;;;;;;;;;;;;16.23;38.88;97389.44;4386666;32;19997;-52
2021/01/24 00:30:47;;;;;;;;;;;;;;;16.20;38.94;97379.84;4387242;32;19999;-51
2021/01/24 00:33:13;;;;;;;;;;;;;;;16.14;39.08;97387.84;4386019;32;19951;-49
2021/01/24 00:35:39;;;;;;;;;;;;;;;16.10;39.13;97386.16;4386529;32;19959;-49
2021/01/24 00:38:05;;;;;;;;;;;;;;;16.07;39.25;97388.84;4386772;32;19969;-52
2021/01/24 00:40:31;;;;;;;;;;;;;;;16.16;39.03;97386.06;4385626;32;20370;-50
2021/01/24 00:42:57;;;;;;;;;;;;;;;16.09;39.13;97381.78;4386635;32;20002;-51
2021/01/24 00:45:22;;;;;;;;;;;;;;;16.10;39.13;97389.66;4383606;32;20038;-52
2021/01/24 00:47:48;;;;;;;;;;;;;;;16.15;38.99;97384.31;4382091;32;20301;-51
2021/01/24 00:50:14;;;;;;;;;;;;;;;16.06;39.16;97388.00;4400252;32;19950;-49
2021/01/24 00:52:40;;;;;;;;;;;;;;;16.09;39.15;97397.53;4397200;32;19955;-47
2021/01/24 00:55:06;;;;;;;;;;;;;;;16.12;39.01;97395.75;4385596;32;20001;-49
2021/01/24 00:57:32;;;;;;;;;;;;;;;16.18;38.90;97397.38;4390742;32;19984;-52
2021/01/24 00:59:58;;;;;;;;;;;;;;;16.17;38.89;97390.41;4402795;32;19987;-51
2021/01/24 01:02:24;;;;;;;;;;;;;;;16.15;38.89;97393.06;4400017;32;20373;-52
2021/01/24 01:04:50;;;;;;;;;;;;;;;16.11;39.04;97395.75;4386997;32;19974;-54
2021/01/24 01:07:15;;;;;;;;;;;;;;;16.08;39.14;97391.44;4387157;32;19989;-53
2021/01/24 01:09:41;;;;;;;;;;;;;;;16.09;39.12;97392.28;4401393;32;20495;-53
2021/01/24 01:12:07;;;;;;;;;;;;;;;15.96;39.35;97389.88;4402633;32;19954;-51
2021/01/24 01:14:33;;;;;;;;;;;;;;;15.88;39.57;97394.37;4388429;32;19947;-51
2021/01/24 01:16:59;;;;;;;;;;;;;;;15.87;39.61;97403.16;4386805;32;19947;-52
2021/01/24 01:19:25;;;;;;;;;;;;;;;15.86;39.59;97399.66;4399549;32;19992;-52
2021/01/24 01:21:51;;;;;;;;;;;;;;;15.72;39.92;97410.34;4402042;32;20369;-49
2021/01/24 01:24:17;;;;;;;;;;;;;;;15.92;39.51;97400.47;4389866;32;20045;-52
2021/01/24 01:26:42;;;;;;;;;;;;;;;15.97;39.38;97415.22;4386716;32;20673;-51
2021/01/24 01:29:08;;;;;;;;;;;;;;;15.99;39.28;97408.22;4396660;32;20029;-52
2021/01/24 01:31:34;;;;;;;;;;;;;;;15.96;39.36;97417.91;4401988;32;19993;-51
2021/01/24 01:34:00;;;;;;;;;;;;;;;15.92;39.42;97418.81;4392434;32;20308;-51
2021/01/24 01:36:26;;;;;;;;;;;;;;;15.96;39.32;97418.75;4386032;32;19959;-51
2021/01/24 01:38:52;;;;;;;;;;;;;;;16.09;39.03;97413.28;4391790;32;19954;-54
2021/01/24 01:41:18;;;;;;;;;;;;;;;16.14;38.88;97412.31;4400667;32;19966;-51
2021/01/24 01:43:44;;;;;;;;;;;;;;;16.18;38.81;97421.03;4396376;32;19990;-50
2021/01/24 01:46:09;;;;;;;;;;;;;;;16.18;38.80;97423.66;4379965;32;19955;-51
2021/01/24 01:48:35;;;;;;;;;;;;;;;16.13;38.87;97421.09;4380722;32;19973;-52
2021/01/24 01:51:01;;;;;;;;;;;;;;;16.11;38.90;97429.88;4388589;32;20024;-53
2021/01/24 01:53:27;;;;;;;;;;;;;;;16.11;38.86;97422.00;4397275;32;19973;-50
2021/01/24 01:55:53;;;;;;;;;;;;;;;16.09;38.92;97423.78;4403445;32;19946;-52
2021/01/24 01:58:19;;;;;;;;;;;;;;;16.06;39.01;97427.38;4402622;32;19959;-50
2021/01/24 02:00:45;;;;;;;;;;;;;;;16.12;38.85;97431.66;4402067;32;19985;-49
2021/01/24 02:03:11;;;;;;;;;;;;;;;16.09;38.90;97434.28;4401970;32;19984;-51
2021/01/24 02:05:36;;;;;;;;;;;;;;;16.07;38.90;97436.09;4402751;32;19938;-51
2021/01/24 02:08:02;;;;;;;;;;;;;;;16.09;38.88;97435.19;4403089;32;19946;-49
2021/01/24 02:10:29;;;;;;;;;;;;;;;16.08;38.88;97430.81;4401519;32;19989;-49
2021/01/24 02:12:55;;;;;;;;;;;;;;;16.08;38.88;97435.19;4402595;32;19946;-51
2021/01/24 02:15:20;;;;;;;;;;;;;;;16.04;38.95;97433.53;4402210;32;20374;-53
2021/01/24 02:17:46;;;;;;;;;;;;;;;16.06;38.93;97444.84;4386838;32;19947;-52
2021/01/24 02:20:12;;;;;;;;;;;;;;;16.01;38.99;97431.81;4399139;32;19951;-52
2021/01/24 02:22:38;;;;;;;;;;;;;;;16.13;38.74;97436.84;4403810;32;20259;-50
2021/01/24 02:25:04;;;;;;;;;;;;;;;16.13;38.72;97436.00;4402468;32;19954;-49
2021/01/24 02:27:30;;;;;;;;;;;;;;;16.16;38.63;97441.19;4413908;32;19969;-52
2021/01/24 02:29:56;;;;;;;;;;;;;;;16.17;38.59;97435.03;4409107;32;20004;-47
2021/01/24 02:32:22;;;;;;;;;;;;;;;16.19;38.59;97438.50;4402522;32;19950;-53
2021/01/24 02:34:48;;;;;;;;;;;;;;;16.06;38.81;97444.84;4403721;32;20007;-50
2021/01/24 02:37:13;;;;;;;;;;;;;;;15.92;39.13;97447.69;4403135;32;20336;-52
2021/01/24 02:39:40;;;;;;;;;;;;;;;15.91;39.19;97449.47;4403038;32;19954;-52
2021/01/24 02:42:05;;;;;;;;;;;;;;;15.94;39.13;97452.03;4403818;32;19946;-49
2021/01/24 02:44:31;;;;;;;;;;;;;;;15.89;39.23;97459.09;4404078;32;19954;-52
2021/01/24 02:46:57;;;;;;;;;;;;;;;15.85;39.32;97457.38;4400010;32;19959;-51
2021/01/24 02:49:23;;;;;;;;;;;;;;;15.85;39.32;97470.50;4390519;32;20425;-51
2021/01/24 02:51:49;;;;;;;;;;;;;;;15.84;39.39;97471.41;4403598;32;19947;-51
2021/01/24 02:54:15;;;;;;;;;;;;;;;15.68;39.65;97479.50;4401599;32;19951;-53
2021/01/24 02:56:41;;;;;;;;;;;;;;;15.69;39.64;97477.78;4406139;32;19950;-49
2021/01/24 02:59:07;;;;;;;;;;;;;;;15.80;39.42;97485.47;4416785;32;19960;-53
2021/01/24 03:01:32;;;;;;;;;;;;;;;15.73;39.54;97482.91;4402802;32;19954;-53
2021/01/24 03:03:58;;;;;;;;;;;;;;;15.71;39.58;97497.81;4402616;32;20328;-49
2021/01/24 03:06:24;;;;;;;;;;;;;;;15.81;39.36;97505.56;4401050;32;19943;-50
2021/01/24 03:08:50;;;;;;;;;;;;;;;15.84;39.29;97508.16;4401525;32;19960;-51
2021/01/24 03:11:16;;;;;;;;;;;;;;;15.91;39.11;97514.19;4401619;32;19958;-51
2021/01/24 03:13:42;;;;;;;;;;;;;;;15.97;38.96;97522.84;4402020;32;20335;-50
2021/01/24 03:16:08;;;;;;;;;;;;;;;15.96;38.96;97523.75;4402412;32;19970;-51
2021/01/24 03:18:34;;;;;;;;;;;;;;;15.92;39.02;97535.19;4388898;32;19969;-53
2021/01/24 03:21:00;;;;;;;;;;;;;;;15.93;39.00;97539.53;4397624;32;20498;-52
2021/01/24 03:23:25;;;;;;;;;;;;;;;15.89;39.07;97540.44;4402612;32;19942;-53
2021/01/24 03:25:51;;;;;;;;;;;;;;;15.94;38.97;97548.31;4402884;32;19959;-52
2021/01/24 03:28:17;;;;;;;;;;;;;;;15.89;39.05;97548.31;4417248;32;20327;-53
2021/01/24 03:30:43;;;;;;;;;;;;;;;15.92;38.95;97544.81;4411335;32;19943;-49
2021/01/24 03:33:09;;;;;;;;;;;;;;;15.81;39.11;97556.31;4402638;32;19969;-52
2021/01/24 03:35:35;;;;;;;;;;;;;;;15.86;39.09;97558.84;4401854;32;19969;-51
2021/01/24 03:38:01;;;;;;;;;;;;;;;15.83;39.11;97569.41;4402541;32;19954;-54
2021/01/24 03:40:27;;;;;;;;;;;;;;;15.81;39.16;97576.44;4400273;32;20329;-53
2021/01/24 03:42:53;;;;;;;;;;;;;;;15.74;39.16;97566.03;4403146;32;19935;-53
2021/01/24 03:45:19;;;;;;;;;;;;;;;15.81;39.03;97590.44;4402748;32;19951;-50
2021/01/24 03:47:45;;;;;;;;;;;;;;;15.83;39.00;97579.88;4399868;32;19973;-53
2021/01/24 03:50:10;;;;;;;;;;;;;;;15.82;38.99;97594.78;4386903;32;19967;-54
2021/01/24 03:52:36;;;;;;;;;;;;;;;15.83;38.94;97585.13;4401033;32;19998;-50
2021/01/24 03:55:02;;;;;;;;;;;;;;;15.88;38.82;97594.69;4401776;32;20015;-50
2021/01/24 03:57:28;;;;;;;;;;;;;;;15.82;38.94;97597.41;4411279;32;20669;-50
2021/01/24 03:59:54;;;;;;;;;;;;;;;15.90;38.80;97602.59;4419295;32;19998;-49
2021/01/24 04:02:20;;;;;;;;;;;;;;;15.88;38.82;97605.19;4405706;32;19950;-52
2021/01/24 04:04:46;;;;;;;;;;;;;;;15.88;38.84;97609.59;4405865;32;20122;-52
2021/01/24 04:07:11;;;;;;;;;;;;;;;15.71;39.19;97609.78;4403659;32;19951;-52
2021/01/24 04:09:37;;;;;;;;;;;;;;;15.53;39.62;97613.50;4405841;32;20012;-51
2021/01/24 04:12:03;;;;;;;;;;;;;;;15.49;39.71;97609.16;4405660;32;19992;-51
2021/01/24 04:14:29;;;;;;;;;;;;;;;15.52;39.67;97609.16;4406396;32;20331;-52
2021/01/24 04:16:55;;;;;;;;;;;;;;;15.49;39.76;97611.78;4406165;32;19954;-53
2021/01/24 04:19:21;;;;;;;;;;;;;;;15.46;39.79;97616.19;4392167;32;19959;-52
2021/01/24 04:21:47;;;;;;;;;;;;;;;15.39;39.97;97614.53;4399345;32;19954;-51
2021/01/24 04:24:13;;;;;;;;;;;;;;;15.27;40.24;97617.28;4405931;32;20255;-52
2021/01/24 04:26:38;;;;;;;;;;;;;;;15.40;39.96;97618.00;4410302;32;19965;-54
2021/01/24 04:29:04;;;;;;;;;;;;;;;15.37;40.00;97624.19;4419915;32;19988;-51
2021/01/24 04:31:30;;;;;;;;;;;;;;;15.37;40.02;97626.81;4414940;32;19942;-52
2021/01/24 04:33:56;;;;;;;;;;;;;;;15.59;39.54;97624.78;4403843;32;20323;-48
2021/01/24 04:36:22;;;;;;;;;;;;;;;15.50;39.70;97632.75;4404002;32;20054;-50
2021/01/24 04:38:48;;;;;;;;;;;;;;;15.57;39.50;97637.06;4404020;32;19966;-52
2021/01/24 04:41:14;;;;;;;;;;;;;;;15.64;39.34;97637.87;4404323;32;20024;-49
2021/01/24 04:43:40;;;;;;;;;;;;;;;15.73;39.12;97637.72;4403940;32;20334;-51
2021/01/24 04:46:06;;;;;;;;;;;;;;;15.81;38.95;97648.16;4405264;32;19965;-50
2021/01/24 04:48:31;;;;;;;;;;;;;;;15.82;38.90;97646.37;4400851;32;19967;-52
2021/01/24 04:50:57;;;;;;;;;;;;;;;15.85;38.83;97648.97;4388864;32;19951;-49
2021/01/24 04:53:23;;;;;;;;;;;;;;;15.89;38.69;97648.06;4403423;32;19964;-53
2021/01/24 04:55:49;;;;;;;;;;;;;;;15.83;38.86;97658.63;4405114;32;19950;-49
2021/01/24 04:58:15;;;;;;;;;;;;;;;15.82;38.87;97662.13;4404254;32;20263;-51
2021/01/24 05:00:41;;;;;;;;;;;;;;;15.84;38.80;97670.84;4403999;32;19939;-52
2021/01/24 05:03:07;;;;;;;;;;;;;;;15.80;38.88;97659.50;4403439;32;20048;-52
2021/01/24 05:05:33;;;;;;;;;;;;;;;15.86;38.76;97672.56;4405096;32;19954;-52
2021/01/24 05:07:59;;;;;;;;;;;;;;;15.86;38.75;97669.06;4405238;32;19939;-51
2021/01/24 05:10:25;;;;;;;;;;;;;;;15.85;38.75;97676.09;4404493;32;19981;-51
2021/01/24 05:12:51;;;;;;;;;;;;;;;15.83;38.79;97671.72;4405418;32;19958;-51
2021/01/24 05:15:16;;;;;;;;;;;;;;;15.74;38.98;97667.47;4405031;32;19979;-52
2021/01/24 05:17:42;;;;;;;;;;;;;;;15.78;38.92;97670.94;4404768;32;19998;-50
2021/01/24 05:20:08;;;;;;;;;;;;;;;15.83;38.76;97675.25;4392435;32;19985;-51
2021/01/24 05:22:34;;;;;;;;;;;;;;;15.80;38.84;97674.41;4397376;32;19950;-52
2021/01/24 05:25:00;;;;;;;;;;;;;;;15.78;38.91;97681.44;4404942;32;19939;-51
2021/01/24 05:27:26;;;;;;;;;;;;;;;15.77;38.90;97675.31;4403428;32;19992;-51
2021/01/24 05:29:52;;;;;;;;;;;;;;;15.78;38.83;97689.31;4404303;32;20339;-53
2021/01/24 05:32:18;;;;;;;;;;;;;;;15.78;38.88;97686.69;4404071;32;19942;-52
2021/01/24 05:34:44;;;;;;;;;;;;;;;15.83;38.74;97692.72;4403681;32;20271;-49
2021/01/24 05:37:10;;;;;;;;;;;;;;;15.77;38.84;97691.03;4404399;32;19969;-52
2021/01/24 05:39:36;;;;;;;;;;;;;;;15.76;38.92;97685.84;4403403;32;19954;-50
2021/01/24 05:42:01;;;;;;;;;;;;;;;15.54;39.35;97697.41;4398023;32;19970;-52
2021/01/24 05:44:27;;;;;;;;;;;;;;;15.46;39.58;97704.50;4394660;32;19989;-51
2021/01/24 05:46:53;;;;;;;;;;;;;;;15.43;39.65;97697.53;4393470;32;20024;-55
2021/01/24 05:49:20;;;;;;;;;;;;;;;15.30;39.93;97707.25;4398510;32;19955;-51
2021/01/24 05:51:46;;;;;;;;;;;;;;;15.31;39.95;97713.38;4418360;32;19976;-51
2021/01/24 05:54:12;;;;;;;;;;;;;;;15.17;40.28;97717.00;4403731;32;19982;-51
2021/01/24 05:56:37;;;;;;;;;;;;;;;15.18;40.23;97729.22;4403879;32;19974;-53
2021/01/24 05:59:03;;;;;;;;;;;;;;;15.12;40.42;97717.91;4403906;32;19992;-54
2021/01/24 06:01:30;;;;;;;;;;;;;;;15.06;40.56;97731.94;4404074;32;20007;-51
2021/01/24 06:03:55;;;;;;;;;;;;;;;15.18;40.25;97723.97;4403595;32;19961;-52
2021/01/24 06:06:21;;;;;;;;;;;;;;;15.22;40.19;97732.69;4401649;32;20373;-51
2021/01/24 06:08:47;;;;;;;;;;;;;;;15.26;40.06;97738.78;4381522;32;19954;-47
2021/01/24 06:11:13;;;;;;;;;;;;;;;15.32;39.92;97742.22;4394444;32;19954;-52
2021/01/24 06:13:39;;;;;;;;;;;;;;;15.47;39.58;97735.09;4397541;32;19994;-48
2021/01/24 06:16:05;;;;;;;;;;;;;;;15.49;39.50;97742.94;4395651;32;19951;-51
2021/01/24 06:18:31;;;;;;;;;;;;;;;15.62;39.19;97747.19;4395808;32;19994;-51
2021/01/24 06:20:57;;;;;;;;;;;;;;;15.71;38.99;97749.72;4397471;32;20001;-51
2021/01/24 06:23:23;;;;;;;;;;;;;;;15.70;39.01;97752.37;4397096;32;20078;-49
2021/01/24 06:25:49;;;;;;;;;;;;;;;15.72;38.95;97756.69;4394031;32;19947;-51
2021/01/24 06:28:15;;;;;;;;;;;;;;;15.64;39.09;97755.91;4394913;32;19969;-53
2021/01/24 06:30:41;;;;;;;;;;;;;;;15.64;39.09;97761.16;4396963;32;19996;-52
2021/01/24 06:33:07;;;;;;;;;;;;;;;15.66;39.05;97762.00;4397280;32;20057;-52
2021/01/24 06:35:33;;;;;;;;;;;;;;;15.65;39.08;97770.78;4394961;32;19955;-52
2021/01/24 06:37:59;;;;;;;;;;;;;;;15.67;38.99;97769.00;4396650;32;19963;-48
2021/01/24 06:40:25;;;;;;;;;;;;;;;15.70;38.98;97779.47;4394714;32;20434;-50
2021/01/24 06:42:51;;;;;;;;;;;;;;;15.64;39.10;97789.13;4395803;32;20028;-50
2021/01/24 06:45:17;;;;;;;;;;;;;;;15.65;39.01;97783.87;4394564;32;19958;-53
2021/01/24 06:47:42;;;;;;;;;;;;;;;15.66;39.02;97790.87;4394059;32;20370;-49
2021/01/24 06:50:08;;;;;;;;;;;;;;;15.58;39.20;97784.81;4397868;32;19969;-52
2021/01/24 06:52:34;;;;;;;;;;;;;;;15.52;39.37;97795.38;4392187;32;19970;-50
2021/01/24 06:55:00;;;;;;;;;;;;;;;15.43;39.48;97801.56;4397488;32;19980;-49
2021/01/24 06:57:26;;;;;;;;;;;;;;;15.44;39.47;97800.69;4395917;32;19967;-53
2021/01/24 06:59:52;;;;;;;;;;;;;;;15.64;39.00;97803.16;4394993;32;19959;-51
2021/01/24 07:02:18;;;;;;;;;;;;;;;15.69;38.91;97809.19;4394201;32;19978;-50
2021/01/24 07:04:44;;;;;;;;;;;;;;;15.69;38.93;97814.44;4395378;32;20363;-51
2021/01/24 07:07:10;;;;;;;;;;;;;;;15.54;39.24;97817.22;4395262;32;19957;-52
2021/01/24 07:09:35;;;;;;;;;;;;;;;15.46;39.43;97833.03;4392745;32;19938;-50
2021/01/24 07:12:01;;;;;;;;;;;;;;;15.25;39.86;97834.91;4395652;32;19955;-48
2021/01/24 07:14:27;;;;;;;;;;;;;;;15.46;39.45;97833.88;4397012;32;19955;-53
2021/01/24 07:16:53;;;;;;;;;;;;;;;15.39;39.61;97845.31;4394707;32;19953;-50
2021/01/24 07:19:19;;;;;;;;;;;;;;;15.13;40.14;97843.75;4396512;32;19989;-51
2021/01/24 07:21:45;;;;;;;;;;;;;;;15.17;40.10;97858.56;4397924;32;20372;-50
2021/01/24 07:24:11;;;;;;;;;;;;;;;15.07;40.33;97856.88;4395102;32;19983;-50
2021/01/24 07:26:37;;;;;;;;;;;;;;;15.12;40.21;97857.72;4393823;32;20311;-50
2021/01/24 07:29:03;;;;;;;;;;;;;;;15.16;40.14;97862.06;4394655;32;20091;-50
2021/01/24 07:31:29;;;;;;;;;;;;;;;15.18;40.07;97862.94;4394841;32;19965;-50
2021/01/24 07:33:55;;;;;;;;;;;;;;;15.26;39.91;97862.03;4395184;32;20040;-50
2021/01/24 07:36:20;;;;;;;;;;;;;;;15.20;39.98;97867.28;4392842;32;19947;-51
2021/01/24 07:38:46;;;;;;;;;;;;;;;15.25;39.95;97870.75;4394030;32;19994;-48
2021/01/24 07:41:12;;;;;;;;;;;;;;;15.38;39.61;97872.44;4403127;32;19950;-54
2021/01/24 07:43:38;;;;;;;;;;;;;;;15.40;39.56;97878.53;4403068;32;19950;-50
2021/01/24 07:46:04;;;;;;;;;;;;;;;15.53;39.26;97881.06;4399226;32;19939;-53
2021/01/24 07:48:30;;;;;;;;;;;;;;;15.54;39.23;97888.03;4393712;32;19992;-54
2021/01/24 07:50:56;;;;;;;;;;;;;;;15.51;39.31;97890.69;4400827;32;19986;-52
2021/01/24 07:53:22;;;;;;;;;;;;;;;15.49;39.31;97901.19;4393415;32;19999;-48
2021/01/24 07:55:48;;;;;;;;;;;;;;;15.51;39.32;97899.41;4396428;32;19969;-51
2021/01/24 07:58:14;;;;;;;;;;;;;;;15.50;39.29;97902.06;4394067;32;19965;-50
2021/01/24 08:00:40;;;;;;;;;;;;;;;15.49;39.30;97893.31;4395320;32;20035;-51
2021/01/24 08:03:06;;;;;;;;;;;;;;;15.59;39.12;97897.63;4395235;32;19949;-50
2021/01/24 08:05:32;;;;;;;;;;;;;;;15.56;39.18;97907.25;4395430;32;20302;-50
2021/01/24 08:07:58;;;;;;;;;;;;;;;15.48;39.30;97899.44;4396561;32;19998;-51
2021/01/24 08:10:23;;;;;;;;;;;;;;;15.51;39.25;97909.06;4394417;32;19955;-51
2021/01/24 08:12:50;;;;;;;;;;;;;;;15.57;39.15;97914.25;4394778;32;20358;-53
2021/01/24 08:15:15;;;;;;;;;;;;;;;15.62;39.00;97912.47;4395267;32;19950;-52
2021/01/24 08:17:41;;;;;;;;;;;;;;;15.61;38.97;97915.97;4393958;32;20066;-53
2021/01/24 08:20:07;;;;;;;;;;;;;;;15.64;38.96;97925.56;4395748;32;19967;-50
2021/01/24 08:22:33;;;;;;;;;;;;;;;15.62;38.99;97922.97;4395610;32;19982;-53
2021/01/24 08:25:00;;;;;;;;;;;;;;;15.56;39.12;97928.25;4397380;32;19958;-52
2021/01/24 08:27:26;;;;;;;;;;;;;;;15.60;39.00;97932.59;4395570;32;19953;-49
2021/01/24 08:29:52;;;;;;;;;;;;;;;15.65;38.88;97928.19;4394158;32;20287;-52
2021/01/24 08:32:17;;;;;;;;;;;;;;;15.73;38.75;97936.00;4394284;32;19992;-48
2021/01/24 08:34:43;;;;;;;;;;;;;;;15.59;38.99;97938.72;4395499;32;20330;-51
2021/01/24 08:37:09;;;;;;;;;;;;;;;15.62;38.98;97938.72;4397801;32;19957;-52
2021/01/24 08:39:35;;;;;;;;;;;;;;;15.42;39.40;97942.31;4402098;32;20359;-52
2021/01/24 08:42:01;;;;;;;;;;;;;;;15.48;39.36;97940.53;4402865;32;19961;-51
2021/01/24 08:44:27;;;;;;;;;;;;;;;15.34;39.60;97941.50;4403822;32;19984;-52
2021/01/24 08:46:53;;;;;;;;;;;;;;;15.42;39.48;97937.09;4404930;32;19985;-51
2021/01/24 08:49:19;;;;;;;;;;;;;;;15.32;39.65;97941.53;4403637;32;19984;-49
2021/01/24 08:51:45;;;;;;;;;;;;;;;15.39;39.57;97952.84;4408402;32;20002;-53
2021/01/24 08:54:11;;;;;;;;;;;;;;;15.49;39.35;97958.00;4402947;32;20002;-48
2021/01/24 08:56:37;;;;;;;;;;;;;;;15.44;39.44;97968.56;4396703;32;19959;-52
2021/01/24 08:59:02;;;;;;;;;;;;;;;15.39;39.50;97976.44;4389325;32;19951;-50
2021/01/24 09:01:29;;;;;;;;;;;;;;;15.44;39.45;97974.66;4395274;32;19982;-51
2021/01/24 09:03:55;;;;;;;;;;;;;;;15.44;39.45;97986.91;4403050;32;19950;-54
2021/01/24 09:06:21;;;;;;;;;;;;;;;15.54;39.25;97982.47;4402553;32;19998;-51
2021/01/24 09:08:47;;;;;;;;;;;;;;;15.58;39.15;97989.44;4399471;32;20001;-53
2021/01/24 09:11:13;;;;;;;;;;;;;;;15.63;39.00;97992.94;4408727;32;19986;-51
2021/01/24 09:13:40;;;;;;;;;;;;;;;15.68;38.93;98009.50;4398337;32;20330;-52
2021/01/24 09:16:06;;;;;;;;;;;;;;;15.68;38.90;98014.75;4381046;32;20022;-53
2021/01/24 09:18:32;;;;;;;;;;;;;;;15.59;39.08;98017.41;4388951;32;20089;-53
2021/01/24 09:20:58;;;;;;;;;;;;;;;15.64;38.96;98015.66;4399973;32;19978;-52
2021/01/24 09:23:24;;;;;;;;;;;;;;;15.66;38.94;98019.13;4384650;32;20068;-51
2021/01/24 09:25:50;;;;;;;;;;;;;;;15.79;38.67;98029.56;4388422;32;20027;-52
2021/01/24 09:28:16;;;;;;;;;;;;;;;15.83;38.59;98033.91;4373658;32;19963;-51
2021/01/24 09:30:42;;;;;;;;;;;;;;;15.77;38.70;98037.44;4373362;32;19955;-53
2021/01/24 09:33:08;;;;;;;;;;;;;;;15.77;38.68;98044.44;4383905;32;19990;-55
2021/01/24 09:35:34;;;;;;;;;;;;;;;15.83;38.59;98041.78;4384889;32;20291;-53
2021/01/24 09:38:01;;;;;;;;;;;;;;;15.79;38.65;98045.31;4380475;32;19993;-50
2021/01/24 09:40:27;;;;;;;;;;;;;;;15.81;38.58;98054.94;4384988;32;19970;-50
2021/01/24 09:42:52;;;;;;;;;;;;;;;15.79;38.65;98045.31;4386705;32;20037;-53
2021/01/24 09:45:19;;;;;;;;;;;;;;;15.85;38.53;98061.88;4383907;32;19962;-53
2021/01/24 09:47:45;;;;;;;;;;;;;;;15.77;38.69;98060.19;4409054;32;20042;-52
2021/01/24 09:50:11;;;;;;;;;;;;;;;15.76;38.74;98071.56;4393040;32;19985;-50
2021/01/24 09:52:37;;;;;;;;;;;;;;;15.76;38.79;98076.81;4383207;32;19975;-49
2021/01/24 09:55:03;;;;;;;;;;;;;;;15.66;38.95;98082.09;4380903;32;20353;-48
2021/01/24 09:57:29;;;;;;;;;;;;;;;15.79;38.69;98080.28;4382748;32;20001;-47
2021/01/24 09:59:55;;;;;;;;;;;;;;;15.84;38.58;98085.50;4382834;32;19992;-54
2021/01/24 10:02:20;;;;;;;;;;;;;;;15.56;36.97;98097.03;4387524;32;20016;-46
2021/01/24 10:04:46;;;;;;;;;;;;;;;14.53;38.07;98101.56;4398912;32;20047;-48
2021/01/24 10:07:12;;;;;;;;;;;;;;;14.68;39.75;98105.06;4382842;32;20002;-46
2021/01/24 10:09:38;;;;;;;;;;;;;;;15.13;38.95;98111.16;4388149;32;19966;-47
2021/01/24 10:12:05;;;;;;;;;;;;;;;15.14;38.90;98114.62;4383120;32;20013;-50
2021/01/24 10:14:30;;;;;;;;;;;;;;;15.08;39.20;98118.13;4383971;32;20326;-49
2021/01/24 10:16:56;;;;;;;;;;;;;;;14.95;39.61;98119.03;4384665;32;19982;-52
2021/01/24 10:19:22;;;;;;;;;;;;;;;14.80;40.13;98133.91;4382113;32;19974;-46
2021/01/24 10:21:48;;;;;;;;;;;;;;;14.78;40.32;98143.50;4382975;32;19992;-47
2021/01/24 10:24:15;;;;;;;;;;;;;;;14.88;40.25;98140.03;4384428;32;20070;-49
2021/01/24 10:26:41;;;;;;;;;;;;;;;14.72;40.76;98156.59;4387871;32;19946;-52
2021/01/24 10:29:07;;;;;;;;;;;;;;;14.68;41.06;98158.31;4386306;32;20006;-51
2021/01/24 10:31:32;;;;;;;;;;;;;;;14.68;41.15;98162.69;4386342;32;19991;-47
2021/01/24 10:33:58;;;;;;;;;;;;;;;14.90;40.80;98168.81;4385755;32;19966;-50
2021/01/24 10:36:24;;;;;;;;;;;;;;;14.94;40.74;98180.19;4387825;32;20012;-51
2021/01/24 10:38:50;;;;;;;;;;;;;;;15.16;40.28;98181.94;4384999;32;19958;-55
2021/01/24 10:41:16;;;;;;;;;;;;;;;15.16;40.42;98188.91;4386504;32;19990;-59
2021/01/24 10:43:42;;;;;;;;;;;;;;;15.34;40.33;98195.88;4385897;32;19970;-59
2021/01/24 10:46:08;;;;;;;;;;;;;;;15.28;37.42;98188.03;4386540;32;20356;-47
2021/01/24 10:48:34;;;;;;;;;;;;;;;15.16;39.43;98192.41;4386372;32;19990;-47
2021/01/24 10:51:00;;;;;;;;;;;;;;;15.16;39.89;98196.78;4387076;32;19993;-48
2021/01/24 10:53:25;;;;;;;;;;;;;;;15.05;40.60;98196.78;4386548;32;19970;-48
2021/01/24 10:55:51;;;;;;;;;;;;;;;15.09;40.74;98201.16;4385958;32;19977;-50
2021/01/24 10:58:17;;;;;;;;;;;;;;;15.24;40.76;98202.87;4377654;32;20004;-44
2021/01/24 11:00:43;;;;;;;;;;;;;;;15.33;40.89;98212.47;4386697;32;19970;-48
2021/01/24 11:03:09;;;;;;;;;;;;;;;15.41;40.89;98207.22;4386443;32;20358;-45
2021/01/24 11:05:35;;;;;;;;;;;;;;;15.49;40.86;98220.31;4386574;32;19969;-44
2021/01/24 11:08:01;;;;;;;;;;;;;;;15.55;40.85;98215.06;4387403;32;19961;-46
2021/01/24 11:10:27;;;;;;;;;;;;;;;15.65;40.78;98216.81;4384240;32;19983;-47
2021/01/24 11:12:53;;;;;;;;;;;;;;;15.70;40.79;98219.41;4386130;32;19955;-50
2021/01/24 11:15:19;;;;;;;;;;;;;;;15.77;40.70;98226.38;4386862;32;20336;-49
2021/01/24 11:17:45;;;;;;;;;;;;;;;15.89;40.58;98222.88;4380110;32;19990;-47
2021/01/24 11:20:10;;;;;;;;;;;;;;;15.98;40.42;98230.72;4385967;32;19949;-47
2021/01/24 11:22:36;;;;;;;;;;;;;;;15.92;40.64;98235.13;4386322;32;19978;-45
2021/01/24 11:25:02;;;;;;;;;;;;;;;15.94;40.67;98242.13;4387832;32;19951;-44
2021/01/24 11:27:28;;;;;;;;;;;;;;;16.04;40.47;98245.56;4386534;32;19986;-50
2021/01/24 11:29:54;;;;;;;;;;;;;;;16.18;40.21;98253.41;4375496;32;19959;-49
2021/01/24 11:32:20;;;;;;;;;;;;;;;16.13;40.35;98249.94;4373011;32;19959;-45
2021/01/24 11:34:46;;;;;;;;;;;;;;;16.29;40.00;98256.84;4400285;32;19950;-46
2021/01/24 11:37:12;;;;;;;;;;;;;;;16.41;39.78;98257.69;4383416;32;19938;-44
2021/01/24 11:39:38;;;;;;;;;;;;;;;16.55;39.50;98258.47;4383386;32;19943;-45
2021/01/24 11:42:04;;;;;;;;;;;;;;;16.56;39.46;98262.84;4387181;32;19967;-52
2021/01/24 11:44:30;;;;;;;;;;;;;;;16.56;39.44;98269.88;4399673;32;19954;-45
2021/01/24 11:46:55;;;;;;;;;;;;;;;16.51;39.56;98267.28;4402210;32;19943;-45
2021/01/24 11:49:21;;;;;;;;;;;;;;;16.61;39.44;98283.00;4392023;32;19951;-46
2021/01/24 11:51:47;;;;;;;;;;;;;;;16.69;39.18;98278.53;4387011;32;19960;-47
2021/01/24 11:54:13;;;;;;;;;;;;;;;16.64;39.27;98278.56;4395751;32;19934;-47
2021/01/24 11:56:39;;;;;;;;;;;;;;;16.70;39.11;98282.91;4385131;32;19974;-47
2021/01/24 11:59:05;;;;;;;;;;;;;;;16.80;38.94;98286.37;4377443;32;19998;-50
2021/01/24 12:01:31;;;;;;;;;;;;;;;16.88;38.73;98288.97;4377624;32;19951;-44
2021/01/24 12:03:57;;;;;;;;;;;;;;;16.91;38.65;98287.16;4388987;32;20424;-45
2021/01/24 12:06:23;;;;;;;;;;;;;;;16.94;38.58;98291.53;4401080;32;20040;-47
2021/01/24 12:08:48;;;;;;;;;;;;;;;16.97;38.50;98292.41;4397238;32;20305;-45
2021/01/24 12:11:14;;;;;;;;;;;;;;;16.99;38.42;98285.41;4383139;32;19961;-47
2021/01/24 12:13:40;;;;;;;;;;;;;;;16.98;38.44;98299.41;4383248;32;19947;-45
2021/01/24 12:16:06;;;;;;;;;;;;;;;16.98;38.46;98288.03;4378183;32;20017;-46
2021/01/24 12:18:32;;;;;;;;;;;;;;;17.05;38.39;98288.88;4381109;32;20014;-47
2021/01/24 12:20:58;;;;;;;;;;;;;;;17.06;38.33;98291.47;4387418;32;20389;-44
2021/01/24 12:23:24;;;;;;;;;;;;;;;17.09;38.33;98291.44;4390278;32;20026;-50
2021/01/24 12:25:50;;;;;;;;;;;;;;;16.98;38.46;98295.91;4388840;32;19954;-45
2021/01/24 12:28:16;;;;;;;;;;;;;;;16.93;38.70;98300.31;4382713;32;20326;-45
2021/01/24 12:30:42;;;;;;;;;;;;;;;17.02;38.51;98297.66;4384982;32;19939;-45
2021/01/24 12:33:11;;;;;;;;;;;;;;;17.13;38.35;98300.19;4381182;32;19955;-45
2021/01/24 12:35:37;;;;;;;;;;;;;;;17.25;38.21;98296.63;4382308;32;19943;-44
2021/01/24 12:38:03;;;;;;;;;;;;;;;17.22;38.18;98292.25;4374579;32;19980;-44
2021/01/24 12:40:28;;;;;;;;;;;;;;;17.26;38.12;98293.97;4397048;32;20346;-47